Time;durP1;ratioP1;P1;durP2;ratioP2;P2;SDS_P1;SDS_P2;PMS_P1;PMS_P2;Temp;Humidity;BMP_temperature;BMP_pressure;BME280_temperature;BME280_humidity;BME280_pressure;Samples;Min_cycle;Max_cycle;Signal;HPM_P1;HPM_P2
2023/08/29 00:01:44;;;;;;;2.85;2.40;;;;;;;21.94;61.40;100895.38;10461257;27;97664;-79
2023/08/29 00:06:48;;;;;;;4.13;2.70;;;;;;;21.70;62.17;100883.00;10460380;27;97649;-79
2023/08/29 00:11:52;;;;;;;4.80;2.90;;;;;;;21.52;62.81;100877.19;10460338;27;97856;-79
2023/08/29 00:16:55;;;;;;;3.78;2.67;;;;;;;21.76;61.90;100880.69;10460378;27;97159;-79
2023/08/29 00:22:00;;;;;;;3.72;2.65;;;;;;;21.71;62.13;100868.66;10460593;27;96921;-79
2023/08/29 00:27:03;;;;;;;3.25;2.40;;;;;;;21.81;61.61;100864.28;10460053;27;97077;-79
2023/08/29 00:32:07;;;;;;;6.13;3.23;;;;;;;21.66;62.44;100858.25;10376663;28;96759;-79
2023/08/29 00:37:12;;;;;;;3.20;2.70;;;;;;;21.61;62.52;100857.75;10376210;28;96695;-79
2023/08/29 00:42:15;;;;;;;3.08;2.63;;;;;;;21.44;62.96;100858.16;10377192;28;96606;-79
2023/08/29 00:47:18;;;;;;;4.50;3.00;;;;;;;21.47;62.65;100849.91;10403982;27;96705;-79
2023/08/29 00:52:23;;;;;;;4.13;2.90;;;;;;;21.54;62.20;100843.13;10417630;28;96850;-79
2023/08/29 00:57:27;;;;;;;5.03;2.90;;;;;;;21.62;62.21;100842.53;10416800;28;96915;-79
2023/08/29 01:02:30;;;;;;;4.93;3.17;;;;;;;21.47;62.43;100842.72;10429248;27;97037;-79
2023/08/29 01:07:36;;;;;;;3.28;2.70;;;;;;;21.43;62.46;100837.72;10458717;27;96998;-79
2023/08/29 01:12:45;;;;;;;4.38;2.95;;;;;;;21.37;62.76;100841.72;10417492;27;96685;-79
2023/08/29 01:17:52;;;;;;;3.88;2.92;;;;;;;21.38;62.72;100829.19;10416689;27;97133;-79
2023/08/29 01:23:08;;;;;;;4.50;3.17;;;;;;;21.44;62.64;100832.25;10457971;27;96917;-79
2023/08/29 01:28:20;;;;;;;4.05;3.20;;;;;;;20.99;64.08;100834.78;10458344;27;96795;-79
2023/08/29 01:33:24;;;;;;;5.28;3.40;;;;;;;21.17;63.57;100834.28;10459914;27;96687;-79
2023/08/29 01:38:27;;;;;;;4.15;3.03;;;;;;;21.10;63.68;100832.16;10457665;27;96623;-79
2023/08/29 01:43:31;;;;;;;3.60;2.92;;;;;;;21.30;63.21;100831.56;10458586;27;96796;-79
2023/08/29 01:48:36;;;;;;;3.78;3.35;;;;;;;21.28;63.12;100826.34;10421107;27;96655;-79
2023/08/29 01:53:39;;;;;;;5.22;3.22;;;;;;;21.35;63.29;100829.41;10423812;27;96739;-79
2023/08/29 01:58:46;;;;;;;5.60;3.63;;;;;;;21.29;63.26;100825.34;10422928;28;96753;-79
2023/08/29 02:03:49;;;;;;;4.97;3.70;;;;;;;21.22;63.58;100826.81;10422963;28;96835;-79
2023/08/29 02:08:52;;;;;;;5.72;3.45;;;;;;;21.26;63.38;100822.91;10423162;28;96841;-79
2023/08/29 02:13:57;;;;;;;4.63;3.47;;;;;;;21.31;63.66;100819.91;10423149;27;96646;-79
2023/08/29 02:19:00;;;;;;;5.30;3.70;;;;;;;21.27;63.52;100805.91;10422001;28;97732;-79
2023/08/29 02:24:04;;;;;;;4.35;3.60;;;;;;;21.22;63.94;100808.06;10423211;28;97127;-79
2023/08/29 02:29:08;;;;;;;4.73;3.33;;;;;;;21.10;64.36;100802.72;10422087;27;96948;-79
2023/08/29 02:34:12;;;;;;;5.15;3.83;;;;;;;21.37;63.47;100798.00;10421717;27;97181;-79
2023/08/29 02:39:15;;;;;;;5.20;3.28;;;;;;;20.79;65.27;100784.56;10420671;27;96894;-79
2023/08/29 02:44:20;;;;;;;5.43;3.55;;;;;;;20.74;65.19;100787.53;10428942;27;96813;-79
2023/08/29 02:49:24;;;;;;;4.45;3.33;;;;;;;20.56;66.06;100785.34;10421110;27;96905;-78
2023/08/29 02:54:27;;;;;;;4.00;3.22;;;;;;;20.47;66.41;100781.53;10421094;28;96714;-79
2023/08/29 02:59:32;;;;;;;4.20;3.28;;;;;;;20.68;65.80;100774.63;10420984;27;96908;-79
2023/08/29 03:04:36;;;;;;;3.10;2.80;;;;;;;20.81;65.58;100770.09;10459190;27;96936;-79
2023/08/29 03:09:39;;;;;;;3.40;3.03;;;;;;;20.91;64.80;100768.44;10462829;27;96653;-79
2023/08/29 03:14:44;;;;;;;4.10;3.05;;;;;;;20.44;66.43;100773.75;10463216;27;96600;-79
2023/08/29 03:19:48;;;;;;;3.45;2.70;;;;;;;20.67;65.75;100783.59;10378298;22;97396;-79
2023/08/29 03:24:52;;;;;;;5.72;3.28;;;;;;;20.42;66.84;100773.00;10337447;28;96720;-79
2023/08/29 03:29:57;;;;;;;3.63;3.25;;;;;;;20.48;66.36;100777.88;10336255;28;96738;-79
2023/08/29 03:35:00;;;;;;;3.20;2.80;;;;;;;20.34;66.48;100767.34;10337683;28;96749;-79
2023/08/29 03:40:04;;;;;;;4.22;3.17;;;;;;;20.46;66.14;100770.94;10337026;28;97332;-79
2023/08/29 03:45:10;;;;;;;4.50;3.30;;;;;;;20.37;66.34;100764.44;10336886;28;97563;-79
2023/08/29 03:50:13;;;;;;;6.07;3.65;;;;;;;20.48;65.61;100764.50;10336355;28;97871;-78
2023/08/29 03:55:17;;;;;;;4.20;3.20;;;;;;;20.32;66.17;100770.09;10336966;28;96949;-79
2023/08/29 04:00:22;;;;;;;4.68;3.60;;;;;;;20.06;67.04;100779.13;10336228;28;97279;-79
2023/08/29 04:05:26;;;;;;;3.65;3.17;;;;;;;20.31;66.56;100780.91;10337013;28;96987;-79
2023/08/29 04:10:29;;;;;;;4.07;3.37;;;;;;;20.44;66.42;100779.09;10355213;28;96864;-79
2023/08/29 04:15:34;;;;;;;5.55;3.47;;;;;;;20.53;66.17;100782.91;10376639;28;97966;-79
2023/08/29 04:20:37;;;;;;;4.18;3.17;;;;;;;20.69;65.87;100779.00;10339422;28;97456;-79
2023/08/29 04:25:41;;;;;;;4.15;2.90;;;;;;;20.70;66.04;100774.53;10336293;28;97898;-79
2023/08/29 04:30:45;;;;;;;3.42;2.67;;;;;;;20.65;66.37;100764.16;10335085;28;96740;-79
2023/08/29 04:35:51;;;;;;;3.55;3.00;;;;;;;20.82;66.17;100773.63;10335035;28;96631;-79
2023/08/29 04:40:54;;;;;;;5.07;2.92;;;;;;;20.88;66.04;100771.34;10335352;28;96927;-79
2023/08/29 04:45:59;;;;;;;5.00;3.10;;;;;;;20.82;66.35;100755.75;10335520;28;96742;-79
2023/08/29 04:51:04;;;;;;;3.80;2.75;;;;;;;21.00;65.72;100750.88;10334892;28;96778;-79
2023/08/29 04:56:07;;;;;;;4.97;3.17;;;;;;;20.69;66.98;100749.59;10335784;28;96810;-79
2023/08/29 05:01:13;;;;;;;4.20;2.88;;;;;;;20.87;66.28;100747.38;10334982;28;97627;-79
2023/08/29 05:06:17;;;;;;;5.28;2.65;;;;;;;20.84;66.02;100748.47;10334406;28;96799;-79
2023/08/29 05:11:20;;;;;;;3.90;2.85;;;;;;;20.61;66.66;100748.44;10333382;28;96874;-79
2023/08/29 05:16:25;;;;;;;3.30;2.80;;;;;;;20.50;66.78;100762.59;10334329;28;96879;-79
2023/08/29 05:21:28;;;;;;;3.90;2.88;;;;;;;20.47;66.75;100757.47;10334385;28;97647;-79
2023/08/29 05:26:31;;;;;;;6.32;3.00;;;;;;;20.54;66.49;100752.53;10341199;28;97386;-79
2023/08/29 05:31:36;;;;;;;3.58;2.67;;;;;;;20.32;66.93;100755.91;10341317;28;96781;-79
2023/08/29 05:36:40;;;;;;;4.32;3.50;;;;;;;20.32;66.95;100753.25;10340678;28;97303;-79
2023/08/29 05:41:43;;;;;;;3.65;2.88;;;;;;;20.11;67.55;100752.91;10340923;28;96744;-79
2023/08/29 05:46:48;;;;;;;3.92;3.13;;;;;;;20.05;67.98;100748.00;10341375;28;97730;-79
2023/08/29 05:51:51;;;;;;;3.75;2.80;;;;;;;20.30;67.05;100748.00;10341020;28;96715;-79
2023/08/29 05:56:55;;;;;;;4.77;4.27;;;;;;;20.36;67.01;100755.56;10340070;28;97049;-79
2023/08/29 06:02:00;;;;;;;4.40;3.40;;;;;;;20.17;67.62;100756.94;10339093;28;97519;-79
2023/08/29 06:07:04;;;;;;;4.43;3.33;;;;;;;19.95;68.44;100752.28;10340294;28;96699;-79
2023/08/29 06:12:08;;;;;;;4.90;3.35;;;;;;;20.24;67.66;100764.44;10298653;28;97442;-79
2023/08/29 06:17:13;;;;;;;5.63;3.87;;;;;;;20.26;67.64;100767.00;10307620;28;96800;-79
2023/08/29 06:22:16;;;;;;;5.95;4.20;;;;;;;20.32;67.55;100777.28;10339414;28;96818;-79
2023/08/29 06:27:20;;;;;;;3.92;3.20;;;;;;;20.29;67.63;100778.31;10366354;28;96845;-79
2023/08/29 06:32:24;;;;;;;4.68;3.20;;;;;;;20.52;67.12;100784.72;10379989;28;96774;-79
2023/08/29 06:37:28;;;;;;;4.70;3.55;;;;;;;20.35;67.79;100785.94;10381160;28;97312;-79
2023/08/29 06:42:31;;;;;;;4.97;3.78;;;;;;;20.36;67.97;100779.63;10379566;28;96991;-79
2023/08/29 06:47:36;;;;;;;5.32;3.90;;;;;;;20.48;67.61;100787.75;10372038;28;96757;-79
2023/08/29 06:52:39;;;;;;;5.75;3.80;;;;;;;20.48;67.47;100787.75;10337636;28;96995;-79
2023/08/29 06:57:43;;;;;;;5.13;4.03;;;;;;;20.71;67.22;100792.25;10338319;28;96791;-79
2023/08/29 07:02:47;;;;;;;4.30;3.75;;;;;;;21.20;66.40;100790.41;10338782;28;96677;-79
2023/08/29 07:07:52;;;;;;;5.32;3.45;;;;;;;22.15;64.57;100796.41;10337827;28;96727;-79
2023/08/29 07:12:55;;;;;;;4.43;3.70;;;;;;;22.97;63.24;100778.06;10339015;28;97025;-80
2023/08/29 07:18:00;;;;;;;6.93;3.70;;;;;;;23.88;61.59;100775.69;10360457;28;96700;-79
2023/08/29 07:23:04;;;;;;;3.55;3.25;;;;;;;24.58;59.98;100773.94;10378550;28;98298;-79
2023/08/29 07:28:09;;;;;;;4.47;3.60;;;;;;;25.28;58.74;100774.66;10379654;28;97665;-80
2023/08/29 07:33:14;;;;;;;5.00;3.22;;;;;;;25.92;57.26;100772.19;10377691;28;96784;-79
2023/08/29 07:38:19;;;;;;;4.03;3.22;;;;;;;26.62;55.31;100761.75;10378188;28;96922;-79
2023/08/29 07:43:22;;;;;;;4.80;4.22;;;;;;;27.06;54.42;100764.63;10377329;28;96862;-79
2023/08/29 07:48:27;;;;;;;4.57;3.33;;;;;;;26.86;54.33;100751.22;10362193;28;97667;-79
2023/08/29 07:53:30;;;;;;;4.80;3.78;;;;;;;27.27;52.85;100743.56;10373226;28;96724;-79
2023/08/29 07:58:33;;;;;;;3.88;3.47;;;;;;;28.13;50.42;100742.69;10377857;28;97704;-80
2023/08/29 08:03:39;;;;;;;4.45;4.03;;;;;;;27.17;51.06;100738.22;10377734;28;96561;-80
2023/08/29 08:08:42;;;;;;;5.07;4.45;;;;;;;27.39;50.06;100747.72;10376698;28;97713;-80
2023/08/29 08:13:46;;;;;;;;;;;;;;;26.59;50.73;100745.00;10377619;28;97161;-80
2023/08/29 08:18:50;;;;;;;6.50;4.57;;;;;;;27.60;48.80;100750.91;10360784;28;96884;-79
2023/08/29 08:23:54;;;;;;;6.63;5.78;;;;;;;27.94;47.94;100741.88;10342385;28;96871;-79
2023/08/29 08:28:59;;;;;;;;;;;;;;;28.51;46.91;100743.06;10376883;28;96814;-79
2023/08/29 08:34:04;;;;;;;5.70;4.80;;;;;;;29.03;46.33;100747.31;10376006;28;96657;-79
2023/08/29 08:39:07;;;;;;;7.07;5.10;;;;;;;30.02;44.22;100734.44;10376293;28;97524;-80
2023/08/29 08:44:15;;;;;;;6.00;5.13;;;;;;;31.27;42.24;100739.63;10375686;28;96808;-79
2023/08/29 08:49:21;;;;;;;7.88;4.20;;;;;;;31.43;40.94;100730.50;10353851;28;96582;-79
2023/08/29 08:54:25;;;;;;;5.00;4.22;;;;;;;31.81;40.59;100734.09;10335424;28;96729;-79
2023/08/29 08:59:28;;;;;;;4.80;4.15;;;;;;;31.37;40.65;100733.13;10340676;28;96807;-79
2023/08/29 09:04:33;;;;;;;5.93;4.35;;;;;;;31.09;40.21;100728.19;10342096;28;96785;-79
2023/08/29 09:09:37;;;;;;;4.35;3.95;;;;;;;31.52;39.84;100731.28;10342452;28;96803;-79
2023/08/29 09:14:42;;;;;;;4.15;3.75;;;;;;;31.32;39.21;100730.97;10342400;28;96748;-79
2023/08/29 09:19:47;;;;;;;3.80;3.40;;;;;;;30.80;39.99;100736.19;10340439;28;96879;-79
2023/08/29 09:24:50;;;;;;;5.35;4.07;;;;;;;31.06;39.50;100742.13;10340493;28;97544;-79
2023/08/29 09:29:54;;;;;;;4.45;3.60;;;;;;;31.16;38.46;100739.19;10341026;28;96683;-79
2023/08/29 09:35:00;;;;;;;3.83;2.95;;;;;;;31.76;37.67;100726.47;10341775;28;96893;-79
2023/08/29 09:40:06;;;;;;;4.05;2.78;;;;;;;31.93;37.39;100719.00;10340870;28;97604;-79
2023/08/29 09:45:30;;;;;;;2.90;2.60;;;;;;;31.93;36.57;100721.72;10341754;28;96989;-80
2023/08/29 09:50:36;;;;;;;3.83;2.40;;;;;;;32.28;35.75;100712.81;10340899;28;97492;-80
2023/08/29 09:55:41;;;;;;;2.67;2.15;;;;;;;32.17;35.57;100700.50;10340156;28;96815;-79
2023/08/29 10:00:45;;;;;;;2.40;1.90;;;;;;;32.70;34.96;100701.22;10340919;28;96696;-79
2023/08/29 10:05:51;;;;;;;3.63;1.95;;;;;;;33.26;33.24;100693.00;10340685;28;96633;-80
2023/08/29 10:10:56;;;;;;;2.45;1.67;;;;;;;32.87;33.99;100692.63;10340422;28;97762;-80
2023/08/29 10:16:00;;;;;;;2.42;1.60;;;;;;;33.13;33.57;100682.00;10337880;28;98424;-80
2023/08/29 10:21:06;;;;;;;2.45;1.60;;;;;;;34.09;32.04;100675.84;10338902;28;96876;-80
2023/08/29 10:26:10;;;;;;;1.73;1.50;;;;;;;33.41;32.61;100661.09;10339581;28;97461;-79
2023/08/29 10:31:14;;;;;;;1.85;1.63;;;;;;;33.40;32.45;100664.84;10339138;28;96764;-80
2023/08/29 10:36:19;;;;;;;1.50;1.30;;;;;;;34.47;30.80;100645.13;10338963;28;97225;-80
2023/08/29 10:41:23;;;;;;;1.75;1.40;;;;;;;34.70;30.13;100652.16;10339555;28;97575;-79
2023/08/29 10:46:26;;;;;;;1.73;1.23;;;;;;;34.56;30.11;100645.78;10338462;28;96659;-81
2023/08/29 10:51:32;;;;;;;1.67;1.27;;;;;;;35.22;29.09;100636.69;10339572;28;97191;-80
2023/08/29 10:56:41;;;;;;;1.20;1.10;;;;;;;34.19;30.26;100622.53;10339041;28;96925;-81
2023/08/29 11:01:44;;;;;;;1.30;1.05;;;;;;;34.17;30.80;100613.69;10338113;28;96945;-80
2023/08/29 11:06:53;;;;;;;1.42;1.30;;;;;;;34.12;30.14;100612.59;10337262;28;97713;-80
2023/08/29 11:12:08;;;;;;;1.02;0.88;;;;;;;34.54;29.61;100587.78;10337904;28;96770;-80
2023/08/29 11:17:13;;;;;;;1.45;0.93;;;;;;;33.81;30.31;100591.22;10337972;28;96721;-81
2023/08/29 11:22:18;;;;;;;0.75;0.70;;;;;;;34.01;30.06;100594.91;10337489;28;97086;-81
2023/08/29 11:27:23;;;;;;;1.02;0.80;;;;;;;33.68;30.03;100588.41;10338145;28;96938;-80
2023/08/29 11:32:26;;;;;;;2.10;0.95;;;;;;;34.71;28.69;100578.13;10356677;28;96697;-81
2023/08/29 11:37:32;;;;;;;0.75;0.52;;;;;;;32.97;29.53;100580.50;10377956;28;97660;-80
2023/08/29 11:42:35;;;;;;;1.17;0.77;;;;;;;32.67;31.02;100571.63;10361223;28;96849;-79
2023/08/29 11:47:59;;;;;;;1.80;1.15;;;;;;;32.41;31.63;100571.34;10344791;28;98959;-80
2023/08/29 11:53:04;;;;;;;1.55;1.10;;;;;;;33.12;30.55;100565.72;10336753;28;99361;-80
2023/08/29 11:58:08;;;;;;;1.60;1.00;;;;;;;32.77;30.64;100566.66;10335115;28;97057;-81
2023/08/29 12:03:12;;;;;;;1.52;0.98;;;;;;;32.79;30.57;100556.41;10336559;28;96658;-80
2023/08/29 12:08:17;;;;;;;1.35;1.02;;;;;;;32.45;31.16;100548.09;10370512;28;96814;-81
2023/08/29 12:13:21;;;;;;;1.55;1.05;;;;;;;32.25;30.94;100531.53;10377612;28;96696;-82
2023/08/29 12:18:26;;;;;;;1.50;1.10;;;;;;;32.03;31.70;100527.06;10376246;28;96933;-79
2023/08/29 12:23:30;;;;;;;1.50;1.17;;;;;;;30.78;33.76;100518.13;10376170;28;97258;-80
2023/08/29 12:28:34;;;;;;;1.50;1.20;;;;;;;30.71;33.48;100500.00;10377016;28;97255;-81
2023/08/29 12:33:37;;;;;;;;;;;;;;;30.96;34.31;100509.59;10377479;28;96709;-81
2023/08/29 12:38:42;;;;;;;1.60;1.33;;;;;;;30.51;34.06;100504.25;10376171;28;97074;-81
2023/08/29 12:43:45;;;;;;;1.75;1.20;;;;;;;30.41;34.85;100496.31;10350098;28;96786;-82
2023/08/29 12:48:49;;;;;;;;;;;;;;;30.33;35.30;100501.81;10334361;28;97343;-81
2023/08/29 12:53:54;;;;;;;5.60;1.57;;;;;;;30.33;35.25;100499.09;10335129;28;96750;-81
2023/08/29 12:58:57;;;;;;;1.70;1.30;;;;;;;30.32;35.51;100493.88;10335313;28;97601;-79
2023/08/29 13:04:03;;;;;;;1.60;1.20;;;;;;;29.99;36.29;100477.75;10334833;28;96953;-82
2023/08/29 13:09:08;;;;;;;1.65;1.23;;;;;;;30.03;36.01;100478.25;10334486;28;96814;-82
2023/08/29 13:14:19;;;;;;;2.33;1.30;;;;;;;30.29;35.73;100473.34;10336625;28;96578;-81
2023/08/29 13:19:24;;;;;;;;;;;;;;;30.50;35.11;100472.66;10334494;28;96881;-81
2023/08/29 13:24:29;;;;;;;1.45;1.08;;;;;;;29.95;35.82;100475.59;10335471;28;97544;-80
2023/08/29 13:29:32;;;;;;;1.75;1.10;;;;;;;29.80;35.74;100452.94;10334758;28;96771;-81
2023/08/29 13:34:36;;;;;;;;;;;;;;;29.70;35.99;100444.19;10334516;28;96681;-81
2023/08/29 13:39:43;;;;;;;1.27;1.00;;;;;;;30.14;35.27;100443.41;10332780;28;96702;-80
2023/08/29 13:44:47;;;;;;;1.27;0.90;;;;;;;29.91;35.94;100419.97;10336721;28;96797;-79
2023/08/29 13:49:50;;;;;;;1.10;0.82;;;;;;;29.96;35.97;100417.56;10340637;28;96999;-80
2023/08/29 13:54:54;;;;;;;;;;;;;;;30.21;35.85;100421.81;10341025;28;96973;-79
2023/08/29 13:59:58;;;;;;;1.52;0.70;;;;;;;30.74;34.85;100405.38;10340435;28;96778;-81
2023/08/29 14:05:01;;;;;;;1.30;0.85;;;;;;;30.52;34.90;100392.69;10340610;28;96845;-79
2023/08/29 14:10:07;;;;;;;0.98;0.52;;;;;;;30.27;35.31;100374.91;10339967;28;96691;-80
2023/08/29 14:15:10;;;;;;;1.10;0.65;;;;;;;29.73;36.38;100362.41;10340310;28;96695;-79
2023/08/29 14:20:13;;;;;;;;;;;;;;;30.57;35.85;100365.78;10340463;28;97820;-79
2023/08/29 14:25:19;;;;;;;0.90;0.70;;;;;;;30.71;34.97;100366.88;10339707;28;96731;-82
2023/08/29 14:30:23;;;;;;;0.95;0.60;;;;;;;30.21;35.53;100362.09;10338314;28;96676;-81
2023/08/29 14:35:26;;;;;;;;;;;;;;;29.50;35.99;100359.69;10339557;28;96662;-81
2023/08/29 14:40:31;;;;;;;0.75;0.68;;;;;;;30.27;34.82;100359.47;10339869;28;97719;-81
2023/08/29 14:45:34;;;;;;;1.67;0.50;;;;;;;30.18;34.86;100360.56;10338662;28;97694;-81
2023/08/29 14:50:37;;;;;;;1.30;0.57;;;;;;;30.75;33.80;100352.69;10338574;28;96899;-81
2023/08/29 14:55:42;;;;;;;0.60;0.40;;;;;;;30.75;33.43;100343.72;10338747;28;96614;-80
2023/08/29 15:00:45;;;;;;;0.40;0.40;;;;;;;30.48;34.09;100347.88;10337665;28;96837;-81
2023/08/29 15:05:55;;;;;;;0.70;0.50;;;;;;;30.54;34.47;100352.56;10339241;28;97532;-81
2023/08/29 15:11:00;;;;;;;0.85;0.50;;;;;;;30.61;33.95;100337.19;10338070;28;96707;-81
2023/08/29 15:16:04;;;;;;;0.68;0.52;;;;;;;30.85;34.08;100333.41;10377993;28;97601;-81
2023/08/29 15:21:09;;;;;;;1.13;0.70;;;;;;;30.75;33.59;100336.41;10378091;28;98078;-81
2023/08/29 15:26:14;;;;;;;;;;;;;;;30.91;33.22;100319.91;10379425;28;97039;-82
2023/08/29 15:31:18;;;;;;;0.85;0.50;;;;;;;30.75;33.59;100311.94;10378691;28;96916;-81
2023/08/29 15:36:25;;;;;;;0.52;0.40;;;;;;;30.28;33.79;100303.31;10378683;28;96859;-81
2023/08/29 15:41:31;;;;;;;0.50;0.50;;;;;;;30.64;33.86;100308.84;10370891;28;97408;-81
2023/08/29 15:46:35;;;;;;;1.05;0.60;;;;;;;30.91;33.58;100306.31;10421707;22;97295;-81
2023/08/29 15:51:38;;;;;;;;;;;;;;;30.63;33.77;100302.53;10337050;28;96688;-80
2023/08/29 15:56:42;;;;;;;0.67;0.57;;;;;;;30.67;33.86;100303.91;10337587;28;96699;-80
2023/08/29 16:01:46;;;;;;;0.63;0.50;;;;;;;30.43;34.26;100301.44;10336506;28;97191;-81
2023/08/29 16:06:50;;;;;;;0.63;0.40;;;;;;;30.30;34.50;100303.94;10335655;28;97617;-80
2023/08/29 16:12:13;;;;;;;0.50;0.40;;;;;;;30.12;34.80;100298.03;10329753;28;96730;-81
2023/08/29 16:17:16;;;;;;;0.63;0.40;;;;;;;29.71;35.39;100299.38;10335878;28;96794;-82
2023/08/29 16:22:20;;;;;;;0.77;0.55;;;;;;;29.53;35.95;100294.25;10336191;28;96732;-81
2023/08/29 16:27:25;;;;;;;1.50;0.65;;;;;;;29.51;35.88;100293.59;10335841;28;96657;-80
2023/08/29 16:32:32;;;;;;;0.88;0.50;;;;;;;29.52;35.97;100297.97;10335760;28;97064;-81
2023/08/29 16:37:37;;;;;;;0.80;0.57;;;;;;;29.33;36.28;100298.41;10335938;28;96747;-80
2023/08/29 16:42:42;;;;;;;0.98;0.55;;;;;;;29.25;36.45;100313.91;10335212;28;97158;-80
2023/08/29 16:47:46;;;;;;;1.08;0.60;;;;;;;29.30;36.31;100308.78;10335176;28;96880;-81
2023/08/29 16:52:49;;;;;;;0.80;0.60;;;;;;;29.28;36.34;100305.44;10335092;28;97521;-81
2023/08/29 16:57:54;;;;;;;1.77;0.40;;;;;;;29.23;36.31;100286.13;10374438;28;96892;-81
2023/08/29 17:03:00;;;;;;;0.75;0.60;;;;;;;28.92;37.51;100296.97;10375036;28;96707;-81
2023/08/29 17:08:05;;;;;;;1.63;0.60;;;;;;;29.13;36.97;100305.34;10376042;28;97718;-79
2023/08/29 17:13:10;;;;;;;2.08;0.50;;;;;;;29.03;37.07;100294.72;10374783;28;97253;-80
2023/08/29 17:18:15;;;;;;;1.02;0.70;;;;;;;28.87;37.76;100296.63;10377892;28;97545;-80
2023/08/29 17:23:18;;;;;;;0.63;0.32;;;;;;;28.97;37.23;100303.56;10383211;28;96757;-81
2023/08/29 17:28:23;;;;;;;2.83;1.10;;;;;;;28.96;38.25;100299.16;10381979;28;96655;-81
2023/08/29 17:33:26;;;;;;;1.85;0.50;;;;;;;28.82;40.24;100308.00;10382384;28;97964;-79
2023/08/29 17:38:30;;;;;;;1.25;0.63;;;;;;;28.44;42.12;100297.13;10382797;28;96693;-79
2023/08/29 17:43:36;;;;;;;1.40;0.70;;;;;;;27.95;44.54;100296.34;10352624;28;96746;-81
2023/08/29 17:48:39;;;;;;;1.20;0.52;;;;;;;27.75;44.81;100297.69;10340818;28;96733;-80
2023/08/29 17:53:42;;;;;;;1.88;0.75;;;;;;;27.79;45.02;100290.91;10339758;28;96898;-78
2023/08/29 17:58:50;;;;;;;1.15;0.70;;;;;;;27.77;45.11;100290.28;10340044;28;96608;-79
2023/08/29 18:03:54;;;;;;;3.90;0.88;;;;;;;27.84;45.12;100300.22;10340979;28;96804;-79
2023/08/29 18:08:58;;;;;;;2.22;1.02;;;;;;;27.78;45.40;100300.06;10340162;28;96706;-80
2023/08/29 18:14:03;;;;;;;1.73;0.80;;;;;;;27.70;45.53;100300.91;10340103;28;97347;-79
2023/08/29 18:19:07;;;;;;;0.75;0.65;;;;;;;27.45;46.27;100315.38;10339997;28;96597;-78
2023/08/29 18:24:11;;;;;;;1.02;0.60;;;;;;;27.33;46.26;100316.72;10339680;28;97065;-78
2023/08/29 18:29:16;;;;;;;1.45;0.95;;;;;;;27.15;46.89;100315.97;10339420;28;96784;-79
2023/08/29 18:34:20;;;;;;;2.45;1.10;;;;;;;27.01;47.35;100328.25;10339464;28;96733;-78
2023/08/29 18:39:24;;;;;;;2.05;0.82;;;;;;;26.93;47.66;100322.81;10339690;28;96724;-79
2023/08/29 18:44:28;;;;;;;3.75;1.00;;;;;;;26.91;47.61;100318.56;10337813;28;96589;-78
2023/08/29 18:49:32;;;;;;;1.55;0.75;;;;;;;26.92;47.31;100329.22;10338712;28;97570;-79
2023/08/29 18:54:35;;;;;;;1.33;0.80;;;;;;;26.82;47.93;100324.94;10339132;28;96643;-79
2023/08/29 18:59:40;;;;;;;1.35;0.80;;;;;;;26.69;47.95;100329.97;10338322;28;96716;-79
2023/08/29 19:04:43;;;;;;;2.30;1.00;;;;;;;26.64;48.12;100330.47;10338237;28;96604;-78
2023/08/29 19:09:46;;;;;;;1.03;0.70;;;;;;;26.54;48.44;100337.81;10338626;28;96661;-79
2023/08/29 19:14:51;;;;;;;1.73;1.00;;;;;;;26.60;48.04;100333.63;10339184;28;97538;-79
2023/08/29 19:19:54;;;;;;;2.28;0.93;;;;;;;26.51;48.17;100335.44;10338217;28;97665;-79
2023/08/29 19:24:58;;;;;;;1.33;0.80;;;;;;;26.33;48.44;100336.47;10337514;28;96645;-78
2023/08/29 19:30:07;;;;;;;1.42;0.90;;;;;;;26.30;48.35;100347.59;10337911;28;96750;-79
2023/08/29 19:35:13;;;;;;;2.85;1.00;;;;;;;26.08;49.39;100343.53;10336758;28;97510;-78
2023/08/29 19:40:16;;;;;;;2.33;1.05;;;;;;;26.08;49.09;100346.25;10336124;28;97637;-78
2023/08/29 19:45:21;;;;;;;2.23;0.93;;;;;;;25.99;49.63;100349.88;10337315;28;96923;-79
2023/08/29 19:50:24;;;;;;;1.40;0.90;;;;;;;25.87;49.84;100351.13;10336115;28;96885;-79
2023/08/29 19:55:29;;;;;;;1.10;0.80;;;;;;;25.80;49.63;100353.59;10336598;28;96611;-79
2023/08/29 20:00:34;;;;;;;1.45;0.80;;;;;;;25.65;50.51;100359.66;10337755;28;96935;-80
2023/08/29 20:05:38;;;;;;;1.58;0.85;;;;;;;25.70;49.94;100363.63;10336301;28;96741;-79
2023/08/29 20:10:43;;;;;;;1.27;0.70;;;;;;;25.70;49.75;100371.69;10337233;28;97583;-79
2023/08/29 20:15:48;;;;;;;1.33;1.00;;;;;;;25.57;49.94;100367.66;10335327;28;96800;-79
2023/08/29 20:20:51;;;;;;;1.73;0.90;;;;;;;25.39;50.59;100356.00;10336265;28;97347;-79
2023/08/29 20:25:55;;;;;;;1.30;0.75;;;;;;;25.27;50.62;100360.78;10334697;28;97621;-79
2023/08/29 20:31:00;;;;;;;2.03;1.00;;;;;;;25.29;50.96;100372.25;10335727;28;96886;-78
2023/08/29 20:36:05;;;;;;;1.83;1.10;;;;;;;25.23;51.61;100377.38;10335873;28;96892;-78
2023/08/29 20:41:09;;;;;;;1.55;0.88;;;;;;;24.95;52.36;100384.56;10335286;28;97703;-79
2023/08/29 20:46:14;;;;;;;1.77;0.90;;;;;;;25.00;52.19;100394.94;10335097;28;96797;-79
2023/08/29 20:51:18;;;;;;;1.65;0.95;;;;;;;24.98;52.19;100403.16;10335480;28;96752;-81
2023/08/29 20:56:21;;;;;;;1.50;1.02;;;;;;;24.96;51.90;100405.13;10342258;28;96859;-79
2023/08/29 21:01:28;;;;;;;1.67;0.90;;;;;;;25.01;51.76;100407.41;10342674;28;96792;-80
2023/08/29 21:06:31;;;;;;;1.98;0.70;;;;;;;25.00;51.86;100408.41;10341898;28;96678;-79
2023/08/29 21:11:35;;;;;;;0.90;0.73;;;;;;;24.89;52.26;100411.25;10342356;28;97468;-79
2023/08/29 21:16:40;;;;;;;1.25;0.90;;;;;;;24.80;52.69;100421.91;10340578;28;96807;-79
2023/08/29 21:21:43;;;;;;;2.15;1.08;;;;;;;24.71;52.76;100403.94;10341429;28;97123;-79
2023/08/29 21:26:47;;;;;;;2.90;1.00;;;;;;;24.60;52.98;100406.81;10342100;28;96737;-79
2023/08/29 21:31:51;;;;;;;1.67;1.00;;;;;;;24.56;53.11;100416.19;10341388;28;97786;-79
2023/08/29 21:36:55;;;;;;;1.55;0.75;;;;;;;24.35;53.69;100412.81;10341110;28;96953;-79
2023/08/29 21:41:58;;;;;;;1.30;0.80;;;;;;;24.42;53.37;100423.84;10340839;28;96651;-79
2023/08/29 21:47:03;;;;;;;1.03;0.70;;;;;;;24.32;53.47;100428.41;10340487;28;99410;-79
2023/08/29 21:52:06;;;;;;;0.95;0.70;;;;;;;24.00;54.18;100422.44;10341520;28;96678;-79
2023/08/29 21:57:10;;;;;;;2.27;0.97;;;;;;;23.85;54.79;100418.47;10340502;28;97140;-79
2023/08/29 22:02:14;;;;;;;1.13;0.80;;;;;;;23.99;54.32;100410.00;10340728;28;96845;-79
2023/08/29 22:07:19;;;;;;;2.20;1.20;;;;;;;23.92;54.47;100423.16;10337903;28;97454;-79
2023/08/29 22:12:23;;;;;;;1.75;0.90;;;;;;;23.73;54.99;100425.81;10341131;28;97168;-79
2023/08/29 22:17:27;;;;;;;1.17;0.50;;;;;;;23.57;55.22;100420.13;10339844;28;97176;-79
2023/08/29 22:22:31;;;;;;;1.73;0.75;;;;;;;23.35;55.87;100417.66;10339580;28;97493;-79
2023/08/29 22:27:35;;;;;;;2.75;0.82;;;;;;;23.40;55.54;100408.22;10339482;28;97431;-79
2023/08/29 22:32:40;;;;;;;1.60;0.80;;;;;;;23.52;55.45;100415.16;10339447;28;96716;-79
2023/08/29 22:37:44;;;;;;;1.70;0.80;;;;;;;23.44;55.74;100419.53;10339850;28;96685;-79
2023/08/29 22:42:48;;;;;;;2.15;0.60;;;;;;;23.24;56.61;100431.19;10339527;28;97064;-79
2023/08/29 22:47:52;;;;;;;1.23;0.80;;;;;;;23.23;56.52;100426.81;10338155;28;97435;-79
2023/08/29 22:52:56;;;;;;;1.45;0.70;;;;;;;23.14;56.73;100420.44;10339228;28;96654;-79
2023/08/29 22:57:59;;;;;;;1.48;0.82;;;;;;;23.23;56.67;100422.28;10337354;28;96908;-79
2023/08/29 23:03:05;;;;;;;0.90;0.60;;;;;;;23.20;56.76;100414.50;10338375;28;96772;-79
2023/08/29 23:08:09;;;;;;;1.77;0.90;;;;;;;23.16;56.85;100414.91;10338929;28;97653;-79
2023/08/29 23:13:13;;;;;;;1.10;0.70;;;;;;;23.01;57.45;100411.75;10338146;28;96740;-79
2023/08/29 23:18:19;;;;;;;2.65;1.00;;;;;;;23.14;57.05;100417.75;10337845;28;96901;-79
2023/08/29 23:23:23;;;;;;;1.02;0.70;;;;;;;22.98;57.18;100413.84;10337769;28;97047;-79